Time;durP1;ratioP1;P1;durP2;ratioP2;P2;SDS_P1;SDS_P2;PMS_P1;PMS_P2;Temp;Humidity;BMP_temperature;BMP_pressure;BME280_temperature;BME280_humidity;BME280_pressure;Samples;Min_cycle;Max_cycle;Signal;HPM_P1;HPM_P2
2022/03/04 00:01:56;;;;;;;18.95;11.70;;;1.70;99.90;;;;;;5033489;28;20477;-53
2022/03/04 00:04:22;;;;;;;17.90;10.95;;;1.70;99.90;;;;;;5015141;28;20061;-55
2022/03/04 00:06:47;;;;;;;16.87;11.30;;;1.70;99.90;;;;;;5032782;28;20029;-54
2022/03/04 00:09:13;;;;;;;17.53;10.70;;;1.70;99.90;;;;;;5032540;28;20279;-53
2022/03/04 00:11:39;;;;;;;17.77;10.63;;;1.70;99.90;;;;;;5033277;28;20037;-54
2022/03/04 00:14:05;;;;;;;16.65;10.18;;;1.70;99.90;;;;;;5033204;28;20090;-53
2022/03/04 00:16:31;;;;;;;20.30;11.57;;;1.60;99.90;;;;;;5018888;28;20037;-55
2022/03/04 00:19:07;;;;;;;22.20;10.82;;;1.60;99.90;;;;;;5032949;28;20280;-56
2022/03/04 00:21:41;;;;;;;17.63;10.52;;;1.60;99.90;;;;;;5032663;28;20034;-55
2022/03/04 00:24:08;;;;;;;21.73;10.90;;;1.60;99.90;;;;;;5033106;28;20038;-55
2022/03/04 00:26:34;;;;;;;15.38;9.95;;;1.60;99.90;;;;;;5031605;28;20567;-54
2022/03/04 00:29:00;;;;;;;19.33;10.07;;;1.50;99.90;;;;;;5033448;28;20128;-55
2022/03/04 00:31:27;;;;;;;17.75;10.65;;;1.50;99.90;;;;;;5014825;28;20041;-51
2022/03/04 00:33:52;;;;;;;16.83;10.30;;;1.60;99.90;;;;;;5032949;28;20045;-55
2022/03/04 00:36:22;;;;;;;16.97;9.50;;;1.60;99.90;;;;;;5032029;28;20105;-56
2022/03/04 00:38:49;;;;;;;15.02;10.32;;;1.60;99.90;;;;;;5032691;28;20048;-53
2022/03/04 00:41:17;;;;;;;17.70;11.07;;;1.60;99.90;;;;;;5032835;28;20243;-56
2022/03/04 00:43:43;;;;;;;18.80;11.52;;;1.60;99.90;;;;;;5032875;28;20510;-56
2022/03/04 00:46:08;;;;;;;19.48;11.70;;;1.50;99.90;;;;;;5032392;28;20116;-50
2022/03/04 00:48:34;;;;;;;15.67;9.73;;;1.50;99.90;;;;;;5014653;28;20532;-55
2022/03/04 00:51:00;;;;;;;18.65;11.05;;;1.60;99.90;;;;;;5031750;28;20040;-55
2022/03/04 00:53:26;;;;;;;17.17;10.65;;;1.50;99.90;;;;;;5032494;28;20517;-54
2022/03/04 00:55:51;;;;;;;19.63;10.57;;;1.50;99.90;;;;;;5031795;28;20038;-51
2022/03/04 00:58:17;;;;;;;20.53;10.60;;;1.50;99.90;;;;;;5032506;28;20060;-51
2022/03/04 01:00:42;;;;;;;19.93;9.63;;;1.50;99.90;;;;;;5032010;28;20036;-52
2022/03/04 01:03:08;;;;;;;17.63;10.73;;;1.50;99.90;;;;;;5031008;28;20077;-55
2022/03/04 01:05:34;;;;;;;16.73;10.17;;;1.50;99.90;;;;;;5031679;28;20056;-55
2022/03/04 01:07:59;;;;;;;16.17;9.93;;;1.50;99.90;;;;;;5014496;28;20045;-53
2022/03/04 01:10:25;;;;;;;20.07;12.90;;;1.40;99.90;;;;;;5031674;28;20037;-55
2022/03/04 01:12:51;;;;;;;21.77;12.57;;;1.40;99.90;;;;;;5032125;28;20095;-53
2022/03/04 01:15:17;;;;;;;23.92;13.18;;;1.40;99.90;;;;;;5031237;28;20207;-54
2022/03/04 01:17:42;;;;;;;22.57;12.87;;;1.40;99.90;;;;;;5014314;28;20041;-54
2022/03/04 01:20:09;;;;;;;22.07;12.97;;;1.40;99.90;;;;;;5013671;28;20037;-53
2022/03/04 01:22:34;;;;;;;18.05;11.52;;;1.40;99.90;;;;;;5031460;28;20049;-53
2022/03/04 01:25:00;;;;;;;16.53;10.37;;;1.30;99.90;;;;;;5031557;28;20087;-50
2022/03/04 01:27:25;;;;;;;18.77;11.33;;;1.30;99.90;;;;;;5031855;28;20048;-53
2022/03/04 01:29:51;;;;;;;19.00;11.37;;;1.30;99.90;;;;;;5031805;28;20029;-53
2022/03/04 01:32:16;;;;;;;19.10;10.53;;;1.30;99.90;;;;;;5031046;28;20083;-56
2022/03/04 01:34:42;;;;;;;21.27;11.50;;;1.30;99.90;;;;;;5031242;28;20090;-55
2022/03/04 01:37:09;;;;;;;18.42;10.48;;;1.20;99.90;;;;;;5031088;28;20164;-52
2022/03/04 01:39:35;;;;;;;21.25;12.57;;;1.20;99.90;;;;;;5031632;28;20073;-55
2022/03/04 01:42:01;;;;;;;16.02;10.77;;;1.10;99.90;;;;;;5031032;28;20486;-55
2022/03/04 01:44:26;;;;;;;17.87;12.00;;;1.10;99.90;;;;;;5031587;28;20065;-55
2022/03/04 01:46:52;;;;;;;23.43;14.60;;;1.00;99.90;;;;;;5030851;28;20398;-52
2022/03/04 01:49:17;;;;;;;19.30;11.67;;;1.00;99.90;;;;;;5031457;28;20131;-53
2022/03/04 01:51:43;;;;;;;21.60;12.87;;;1.00;99.90;;;;;;5031086;28;20487;-55
2022/03/04 01:54:08;;;;;;;21.10;13.10;;;1.00;99.90;;;;;;5031398;28;20501;-55
2022/03/04 01:56:34;;;;;;;20.57;13.20;;;1.00;99.90;;;;;;5030589;28;20059;-55
2022/03/04 01:59:00;;;;;;;21.63;13.03;;;1.00;99.90;;;;;;5031264;28;20068;-55
2022/03/04 02:01:25;;;;;;;18.77;11.77;;;0.90;99.90;;;;;;5030931;28;20398;-55
2022/03/04 02:03:51;;;;;;;21.25;13.70;;;0.90;99.90;;;;;;5030545;28;20067;-52
2022/03/04 02:06:17;;;;;;;20.52;12.27;;;0.90;99.90;;;;;;5030604;28;20045;-54
2022/03/04 02:08:43;;;;;;;24.33;13.68;;;0.80;99.90;;;;;;5030999;28;20037;-56
2022/03/04 02:11:08;;;;;;;22.83;13.57;;;0.80;99.90;;;;;;5030910;28;20121;-53
2022/03/04 02:13:35;;;;;;;22.03;11.80;;;0.70;99.90;;;;;;5030849;28;20049;-54
2022/03/04 02:16:00;;;;;;;19.85;12.80;;;0.70;99.90;;;;;;5030318;28;20039;-55
2022/03/04 02:18:26;;;;;;;22.15;12.80;;;0.70;99.90;;;;;;5021945;28;20045;-54
2022/03/04 02:20:53;;;;;;;23.20;12.70;;;0.70;99.90;;;;;;5012792;28;20057;-54
2022/03/04 02:23:19;;;;;;;25.83;13.52;;;0.70;99.90;;;;;;5030729;28;20350;-54
2022/03/04 02:25:50;;;;;;;22.85;12.75;;;0.70;99.90;;;;;;5030976;28;20045;-53
2022/03/04 02:28:17;;;;;;;20.95;13.40;;;0.70;99.90;;;;;;5030008;28;20079;-56
2022/03/04 02:30:43;;;;;;;29.00;13.80;;;0.60;99.90;;;;;;5013181;28;20076;-54
2022/03/04 02:33:09;;;;;;;27.93;14.57;;;0.60;99.90;;;;;;5029816;28;20072;-54
2022/03/04 02:35:36;;;;;;;25.35;14.95;;;0.60;99.90;;;;;;5030647;28;20033;-54
2022/03/04 02:38:02;;;;;;;28.40;16.27;;;0.50;99.90;;;;;;5030519;28;20392;-54
2022/03/04 02:40:28;;;;;;;;;;;0.50;99.90;;;;;;5030763;28;20038;-56
2022/03/04 02:42:54;;;;;;;26.88;14.75;;;0.50;99.90;;;;;;5030056;28;20305;-55
2022/03/04 02:45:20;;;;;;;27.27;15.65;;;0.50;99.90;;;;;;5012820;28;20053;-55
2022/03/04 02:47:46;;;;;;;26.73;15.77;;;0.50;99.90;;;;;;5030222;28;20033;-56
2022/03/04 02:50:11;;;;;;;23.80;14.63;;;0.50;99.90;;;;;;5030203;28;20696;-53
2022/03/04 02:52:37;;;;;;;28.13;16.53;;;0.40;99.90;;;;;;5012047;28;20081;-56
2022/03/04 02:55:03;;;;;;;32.47;15.87;;;0.40;99.90;;;;;;5029921;28;20038;-56
2022/03/04 02:57:28;;;;;;;29.95;15.88;;;0.40;99.90;;;;;;5029916;28;20465;-55
2022/03/04 02:59:54;;;;;;;24.30;14.53;;;0.40;99.90;;;;;;5029771;28;20050;-55
2022/03/04 03:02:19;;;;;;;29.00;15.93;;;0.40;99.90;;;;;;5029464;28;20052;-56
2022/03/04 03:04:45;;;;;;;30.63;16.13;;;0.30;99.90;;;;;;5029617;28;20041;-55
2022/03/04 03:07:11;;;;;;;27.63;17.13;;;0.30;99.90;;;;;;5030320;28;20030;-55
2022/03/04 03:09:36;;;;;;;32.55;17.65;;;0.30;99.90;;;;;;5012376;28;20048;-56
2022/03/04 03:12:02;;;;;;;33.43;19.57;;;0.30;99.90;;;;;;5012287;28;20045;-54
2022/03/04 03:14:28;;;;;;;34.90;19.80;;;0.20;99.90;;;;;;5029475;28;20140;-55
2022/03/04 03:16:53;;;;;;;32.77;18.83;;;0.20;99.90;;;;;;5011589;28;20292;-56
2022/03/04 03:19:19;;;;;;;34.43;19.43;;;0.20;99.90;;;;;;5012332;28;20046;-55
2022/03/04 03:21:44;;;;;;;30.97;19.23;;;0.10;99.90;;;;;;5029698;28;20413;-55
2022/03/04 03:24:10;;;;;;;32.40;19.73;;;0.10;99.90;;;;;;5029523;28;20037;-55
2022/03/04 03:26:36;;;;;;;35.23;19.67;;;0.00;99.90;;;;;;5029558;28;20066;-56
2022/03/04 03:29:01;;;;;;;32.67;19.67;;;0.00;99.90;;;;;;5033594;28;20034;-55
2022/03/04 03:31:27;;;;;;;41.93;21.80;;;0.00;99.90;;;;;;5033576;28;20045;-55
2022/03/04 03:33:52;;;;;;;38.37;20.87;;;0.00;99.90;;;;;;5033605;28;20052;-55
2022/03/04 03:36:20;;;;;;;34.27;20.63;;;0.00;99.90;;;;;;5033502;28;20041;-55
2022/03/04 03:38:46;;;;;;;37.40;20.35;;;-0.10;99.90;;;;;;5016072;28;20041;-53
2022/03/04 03:41:11;;;;;;;38.13;22.93;;;-0.10;99.90;;;;;;5033531;28;20045;-52
2022/03/04 03:43:37;;;;;;;46.43;25.10;;;-0.10;99.90;;;;;;5033458;28;20096;-53
2022/03/04 03:46:02;;;;;;;41.87;22.67;;;-0.10;99.90;;;;;;5032859;28;20152;-52
2022/03/04 03:48:28;;;;;;;38.57;23.07;;;-0.10;99.90;;;;;;5033819;28;20518;-53
2022/03/04 03:50:54;;;;;;;41.60;22.57;;;-0.10;99.90;;;;;;5033464;28;20526;-54
2022/03/04 03:53:19;;;;;;;39.40;23.43;;;-0.10;99.90;;;;;;5015753;28;20473;-54
2022/03/04 03:55:45;;;;;;;41.17;23.87;;;-0.10;99.90;;;;;;5033156;28;20037;-52
2022/03/04 03:58:10;;;;;;;47.33;23.07;;;-0.20;99.90;;;;;;5033217;28;20260;-51
2022/03/04 04:00:36;;;;;;;39.00;22.17;;;-0.20;99.90;;;;;;5032896;28;20100;-54
2022/03/04 04:03:02;;;;;;;43.42;23.00;;;-0.20;99.90;;;;;;5033462;28;20041;-53
2022/03/04 04:05:28;;;;;;;44.23;23.00;;;-0.20;99.90;;;;;;5015430;28;20042;-53
2022/03/04 04:07:53;;;;;;;39.45;21.92;;;-0.20;99.90;;;;;;5015588;28;20049;-51
2022/03/04 04:10:20;;;;;;;37.00;21.83;;;-0.20;99.90;;;;;;5033363;28;20549;-52
2022/03/04 04:12:45;;;;;;;;;;;-0.20;99.90;;;;;;5015587;28;20125;-49
2022/03/04 04:15:11;;;;;;;41.28;21.17;;;-0.20;99.90;;;;;;5033123;28;20347;-51
2022/03/04 04:17:36;;;;;;;41.57;21.77;;;-0.20;99.90;;;;;;5032543;28;20034;-52
2022/03/04 04:20:02;;;;;;;43.70;22.77;;;-0.20;99.90;;;;;;5033301;28;20403;-51
2022/03/04 04:22:28;;;;;;;42.00;23.20;;;-0.30;99.90;;;;;;5032599;28;20053;-53
2022/03/04 04:24:53;;;;;;;38.57;23.43;;;-0.30;99.90;;;;;;5032734;28;20042;-49
2022/03/04 04:27:19;;;;;;;41.97;24.00;;;-0.30;99.90;;;;;;5032998;28;20608;-55
2022/03/04 04:29:44;;;;;;;40.10;23.47;;;-0.30;99.90;;;;;;5032993;28;20038;-52
2022/03/04 04:32:10;;;;;;;42.93;23.53;;;-0.30;99.90;;;;;;5033071;28;20068;-52
2022/03/04 04:34:36;;;;;;;48.03;24.60;;;-0.30;99.90;;;;;;5032684;28;20084;-54
2022/03/04 04:37:01;;;;;;;41.35;22.98;;;-0.30;99.90;;;;;;5032354;28;20045;-52
2022/03/04 04:39:27;;;;;;;46.13;23.57;;;-0.30;99.90;;;;;;5032397;28;20126;-52
2022/03/04 04:41:53;;;;;;;45.13;24.67;;;-0.30;99.90;;;;;;5032660;28;20037;-53
2022/03/04 04:44:18;;;;;;;43.93;23.93;;;-0.30;99.90;;;;;;5032022;28;20406;-52
2022/03/04 04:46:44;;;;;;;40.93;23.30;;;-0.30;99.90;;;;;;5032695;28;20491;-48
2022/03/04 04:49:09;;;;;;;42.57;22.90;;;-0.30;99.90;;;;;;5031933;28;20518;-48
2022/03/04 04:51:35;;;;;;;42.07;24.37;;;-0.20;99.90;;;;;;5014558;28;20049;-54
2022/03/04 04:54:01;;;;;;;44.60;23.23;;;-0.20;99.90;;;;;;5032274;28;20503;-52
2022/03/04 04:56:26;;;;;;;44.63;24.80;;;-0.30;99.90;;;;;;5031766;28;20498;-52
2022/03/04 04:58:52;;;;;;;51.13;24.80;;;-0.30;99.90;;;;;;5031862;28;20044;-54
2022/03/04 05:01:17;;;;;;;46.23;25.87;;;-0.30;99.90;;;;;;5014373;28;20045;-49
2022/03/04 05:03:43;;;;;;;45.50;24.57;;;-0.30;99.90;;;;;;5032112;28;20040;-49
2022/03/04 05:06:09;;;;;;;43.45;23.67;;;-0.30;99.90;;;;;;5032029;28;20560;-53
2022/03/04 05:08:34;;;;;;;46.67;26.57;;;-0.30;99.90;;;;;;5031945;28;20121;-53
2022/03/04 05:11:00;;;;;;;41.53;23.73;;;-0.30;99.90;;;;;;5032002;28;20048;-54
2022/03/04 05:13:27;;;;;;;47.50;24.70;;;-0.30;99.90;;;;;;5031255;28;20478;-51
2022/03/04 05:15:52;;;;;;;50.22;24.30;;;-0.30;99.90;;;;;;5032055;28;20113;-53
2022/03/04 05:18:18;;;;;;;47.90;24.95;;;-0.30;99.90;;;;;;5031918;28;20119;-52
2022/03/04 05:20:44;;;;;;;52.23;26.33;;;-0.30;99.90;;;;;;5031782;28;20041;-53
2022/03/04 05:23:10;;;;;;;46.70;24.83;;;-0.30;99.90;;;;;;5031540;28;20296;-51
2022/03/04 05:25:35;;;;;;;55.78;30.48;;;-0.30;99.90;;;;;;5032058;28;20485;-50
2022/03/04 05:28:01;;;;;;;47.07;24.80;;;-0.30;99.90;;;;;;5031115;28;20258;-51
2022/03/04 05:30:27;;;;;;;59.10;30.20;;;-0.40;99.90;;;;;;5031917;28;20045;-54
2022/03/04 05:32:52;;;;;;;54.80;29.60;;;-0.40;99.90;;;;;;5031113;28;20284;-52
2022/03/04 05:35:18;;;;;;;56.87;29.47;;;-0.40;99.90;;;;;;5031595;28;20103;-50
2022/03/04 05:37:44;;;;;;;65.27;33.73;;;-0.40;99.90;;;;;;5031521;28;20589;-55
2022/03/04 05:40:09;;;;;;;54.70;28.13;;;-0.40;99.90;;;;;;5031223;28;20120;-54
2022/03/04 05:42:35;;;;;;;61.63;30.23;;;-0.40;99.90;;;;;;5031087;28;20046;-54
2022/03/04 05:45:01;;;;;;;64.33;32.00;;;-0.40;99.90;;;;;;5031091;28;20112;-51
2022/03/04 05:47:26;;;;;;;60.70;32.33;;;-0.40;99.90;;;;;;5031157;28;20084;-52
2022/03/04 05:49:52;;;;;;;60.63;30.37;;;-0.40;99.90;;;;;;5030836;28;20427;-54
2022/03/04 05:52:17;;;;;;;57.20;30.07;;;-0.40;99.90;;;;;;5031014;28;20034;-54
2022/03/04 05:54:43;;;;;;;55.50;31.03;;;-0.40;99.90;;;;;;5031052;28;20092;-53
2022/03/04 05:57:09;;;;;;;54.67;28.77;;;-0.40;99.90;;;;;;5030625;28;20121;-53
2022/03/04 05:59:34;;;;;;;58.70;31.20;;;-0.40;99.90;;;;;;5013127;28;20060;-54
2022/03/04 06:02:00;;;;;;;60.13;30.63;;;-0.30;99.90;;;;;;5030881;28;20037;-54
2022/03/04 06:04:25;;;;;;;66.23;35.03;;;-0.30;99.90;;;;;;5030828;28;20402;-54
2022/03/04 06:06:51;;;;;;;62.77;32.73;;;-0.30;99.90;;;;;;5031098;28;20037;-54
2022/03/04 06:09:16;;;;;;;59.30;30.97;;;-0.30;99.90;;;;;;5030475;28;20136;-51
2022/03/04 06:11:45;;;;;;;64.40;31.70;;;-0.30;99.90;;;;;;5030222;28;20048;-49
2022/03/04 06:14:10;;;;;;;69.20;33.85;;;-0.30;99.90;;;;;;5013186;28;20045;-50
2022/03/04 06:16:36;;;;;;;63.43;30.47;;;-0.30;99.90;;;;;;5030910;28;20115;-49
2022/03/04 06:19:02;;;;;;;63.50;31.50;;;-0.30;99.90;;;;;;5030365;28;20038;-49
2022/03/04 06:21:27;;;;;;;62.23;30.37;;;-0.20;99.90;;;;;;5030608;28;20116;-50
2022/03/04 06:23:53;;;;;;;58.90;32.47;;;-0.20;99.90;;;;;;5030209;28;20091;-52
2022/03/04 06:26:20;;;;;;;62.73;31.03;;;-0.20;99.90;;;;;;5030419;28;20134;-49
2022/03/04 06:28:46;;;;;;;69.72;33.33;;;-0.20;99.90;;;;;;5030369;28;20597;-49
2022/03/04 06:31:11;;;;;;;67.57;35.25;;;-0.20;99.90;;;;;;5013302;28;20409;-50
2022/03/04 06:33:38;;;;;;;66.80;33.90;;;-0.20;99.90;;;;;;5029682;28;20065;-49
2022/03/04 06:36:10;;;;;;;72.75;35.47;;;-0.20;99.90;;;;;;5007913;28;20053;-49
2022/03/04 06:38:39;;;;;;;66.80;33.75;;;-0.20;99.90;;;;;;5026555;28;20042;-51
2022/03/04 06:41:05;;;;;;;73.53;35.50;;;-0.20;99.90;;;;;;5030030;28;20123;-51
2022/03/04 06:43:31;;;;;;;69.43;32.83;;;-0.30;99.90;;;;;;5030122;28;20069;-50
2022/03/04 06:45:56;;;;;;;64.18;31.73;;;-0.30;99.90;;;;;;5029694;28;20450;-51
2022/03/04 06:48:22;;;;;;;65.57;32.43;;;-0.30;99.90;;;;;;5029587;28;20033;-49
2022/03/04 06:50:49;;;;;;;60.08;32.55;;;-0.30;99.90;;;;;;5011904;28;20065;-52
2022/03/04 06:53:15;;;;;;;68.65;34.05;;;-0.30;99.90;;;;;;5028827;28;20049;-49
2022/03/04 06:55:41;;;;;;;72.00;36.03;;;-0.30;99.90;;;;;;5029191;28;20062;-50
2022/03/04 06:58:06;;;;;;;69.17;33.17;;;-0.30;99.90;;;;;;5030498;28;20197;-51
2022/03/04 07:00:32;;;;;;;70.63;37.87;;;-0.30;99.90;;;;;;5029570;28;20042;-50
2022/03/04 07:02:58;;;;;;;74.00;37.87;;;-0.30;99.90;;;;;;5029906;28;20045;-49
2022/03/04 07:05:24;;;;;;;69.67;31.57;;;-0.30;99.90;;;;;;5029859;28;20398;-50
2022/03/04 07:07:51;;;;;;;72.57;35.97;;;-0.20;99.90;;;;;;5030105;28;20037;-51
2022/03/04 07:10:17;;;;;;;73.85;34.00;;;-0.20;99.90;;;;;;5029554;28;20040;-50
2022/03/04 07:12:43;;;;;;;76.43;38.33;;;-0.20;99.90;;;;;;5030243;28;20371;-52
2022/03/04 07:15:09;;;;;;;75.60;35.27;;;-0.20;99.90;;;;;;5030029;28;20052;-49
2022/03/04 07:17:35;;;;;;;72.25;33.10;;;-0.20;99.90;;;;;;5030266;28;20437;-49
2022/03/04 07:20:01;;;;;;;81.18;37.50;;;-0.20;99.90;;;;;;5030051;28;20121;-52
2022/03/04 07:22:27;;;;;;;66.82;32.63;;;-0.20;99.90;;;;;;5029224;28;20042;-49
2022/03/04 07:24:52;;;;;;;72.60;35.03;;;-0.20;99.90;;;;;;5028453;28;20517;-51
2022/03/04 07:27:18;;;;;;;66.07;33.27;;;-0.20;99.90;;;;;;5030178;28;20091;-49
2022/03/04 07:29:43;;;;;;;62.27;30.87;;;-0.20;99.90;;;;;;5029403;28;20037;-50
2022/03/04 07:32:09;;;;;;;70.93;34.90;;;-0.20;99.90;;;;;;5030031;28;20038;-52
2022/03/04 07:34:35;;;;;;;70.20;34.43;;;-0.20;99.90;;;;;;5012100;28;20113;-54
2022/03/04 07:37:00;;;;;;;69.90;34.80;;;-0.20;99.90;;;;;;5029747;28;20033;-49
2022/03/04 07:39:26;;;;;;;73.93;36.47;;;-0.20;99.90;;;;;;5011823;28;20052;-49
2022/03/04 07:41:51;;;;;;;80.35;37.92;;;-0.20;99.90;;;;;;5029800;28;20557;-50
2022/03/04 07:44:18;;;;;;;70.73;33.93;;;-0.10;99.90;;;;;;5029979;28;20115;-53
2022/03/04 07:46:44;;;;;;;76.10;36.08;;;-0.10;99.90;;;;;;5011922;28;20072;-51
2022/03/04 07:49:10;;;;;;;71.97;34.35;;;0.00;99.90;;;;;;5029443;28;20070;-53
2022/03/04 07:51:36;;;;;;;74.07;36.13;;;0.00;99.90;;;;;;5029147;28;20038;-53
2022/03/04 07:54:02;;;;;;;65.17;31.40;;;0.00;99.90;;;;;;5029076;28;20116;-52
2022/03/04 07:56:27;;;;;;;66.38;32.58;;;0.10;99.90;;;;;;5031525;28;20415;-50
2022/03/04 07:58:53;;;;;;;78.80;38.57;;;0.10;99.90;;;;;;5049024;28;20056;-49
2022/03/04 08:01:19;;;;;;;78.60;36.47;;;0.20;99.90;;;;;;5025800;28;20538;-49
2022/03/04 08:03:45;;;;;;;80.70;39.00;;;0.20;99.90;;;;;;5026891;28;20033;-50
2022/03/04 08:06:10;;;;;;;83.65;37.50;;;0.10;99.90;;;;;;5021904;28;20053;-53
2022/03/04 08:08:36;;;;;;;93.40;41.67;;;0.20;99.90;;;;;;5028886;28;20067;-49
2022/03/04 08:11:02;;;;;;;82.27;41.23;;;0.10;99.90;;;;;;5028330;28;20033;-49
2022/03/04 08:13:27;;;;;;;82.87;39.80;;;0.20;99.90;;;;;;5031269;28;20033;-49
2022/03/04 08:15:53;;;;;;;94.27;44.30;;;0.10;99.90;;;;;;5032799;28;20052;-51
2022/03/04 08:18:18;;;;;;;88.13;39.23;;;0.10;99.90;;;;;;5014989;28;20280;-52
2022/03/04 08:20:44;;;;;;;93.50;42.87;;;0.10;99.90;;;;;;5033124;28;20415;-49
2022/03/04 08:23:13;;;;;;;83.67;39.57;;;0.10;99.90;;;;;;5032067;28;20486;-52
2022/03/04 08:25:39;;;;;;;79.30;36.05;;;0.10;99.90;;;;;;5032762;28;20287;-49
2022/03/04 08:28:05;;;;;;;93.93;43.75;;;0.20;99.90;;;;;;5032117;28;20076;-49
2022/03/04 08:30:31;;;;;;;94.57;47.42;;;0.20;99.90;;;;;;5032047;28;20113;-55
2022/03/04 08:32:57;;;;;;;85.13;39.95;;;0.20;99.90;;;;;;5025525;28;20133;-49
2022/03/04 08:35:22;;;;;;;87.83;39.47;;;0.20;99.90;;;;;;5031380;28;20136;-51
2022/03/04 08:37:48;;;;;;;81.80;39.20;;;0.20;99.90;;;;;;5032527;28;20070;-50
2022/03/04 08:40:14;;;;;;;74.93;35.80;;;0.20;99.90;;;;;;5032742;28;20551;-54
2022/03/04 08:42:41;;;;;;;74.15;33.55;;;0.20;99.90;;;;;;5032405;28;20091;-53
2022/03/04 08:45:09;;;;;;;79.00;38.22;;;0.30;99.90;;;;;;5032385;28;20041;-55
2022/03/04 08:47:35;;;;;;;77.78;35.03;;;0.30;99.90;;;;;;5032216;28;20049;-54
2022/03/04 08:50:01;;;;;;;74.95;34.88;;;0.30;99.90;;;;;;5031995;28;20036;-55
2022/03/04 08:52:27;;;;;;;65.90;33.60;;;0.40;99.90;;;;;;5030818;28;20053;-49
2022/03/04 08:54:52;;;;;;;69.37;32.33;;;0.50;99.90;;;;;;5029166;28;20039;-54
2022/03/04 08:57:19;;;;;;;72.53;36.00;;;0.70;99.90;;;;;;5032190;28;20041;-54
2022/03/04 08:59:44;;;;;;;66.75;32.95;;;0.90;99.90;;;;;;5030182;28;20502;-54
2022/03/04 09:02:10;;;;;;;69.03;31.80;;;1.00;99.90;;;;;;5031646;28;20048;-54
2022/03/04 09:04:36;;;;;;;64.40;32.23;;;1.10;99.90;;;;;;5013301;28;20116;-50
2022/03/04 09:07:03;;;;;;;59.63;31.63;;;1.10;99.90;;;;;;5032225;28;20272;-55
2022/03/04 09:09:29;;;;;;;72.15;32.55;;;1.20;99.90;;;;;;5031759;28;20087;-50
2022/03/04 09:11:55;;;;;;;61.57;29.93;;;1.40;99.90;;;;;;5032280;28;20033;-51
2022/03/04 09:14:23;;;;;;;59.30;30.90;;;1.40;99.90;;;;;;5031818;28;20517;-55
2022/03/04 09:16:50;;;;;;;61.75;33.75;;;1.60;99.90;;;;;;5027752;28;20034;-51
2022/03/04 09:19:15;;;;;;;63.47;34.63;;;1.70;99.90;;;;;;5011861;28;20048;-54
2022/03/04 09:21:41;;;;;;;56.67;31.33;;;1.70;99.90;;;;;;5022095;28;20064;-51
2022/03/04 09:24:07;;;;;;;56.58;30.35;;;1.60;99.90;;;;;;5031168;28;20045;-55
2022/03/04 09:26:34;;;;;;;56.40;28.58;;;1.60;99.90;;;;;;5031327;28;20069;-50
2022/03/04 09:28:59;;;;;;;56.97;29.17;;;1.60;99.90;;;;;;5031899;28;20038;-53
2022/03/04 09:31:25;;;;;;;54.03;29.40;;;1.60;99.90;;;;;;5030449;28;20038;-54
2022/03/04 09:33:51;;;;;;;54.10;28.70;;;1.60;99.90;;;;;;5012626;28;20291;-55
2022/03/04 09:36:16;;;;;;;52.00;28.40;;;1.70;99.90;;;;;;5030640;28;20049;-52
2022/03/04 09:38:42;;;;;;;56.17;30.97;;;1.80;99.90;;;;;;5029559;28;20661;-54
2022/03/04 09:41:08;;;;;;;57.35;33.67;;;1.90;99.90;;;;;;5030868;28;20044;-49
2022/03/04 09:43:35;;;;;;;53.55;29.88;;;1.80;99.90;;;;;;5031455;28;20344;-49
2022/03/04 09:46:01;;;;;;;51.17;29.02;;;1.90;99.90;;;;;;5030914;28;20124;-54
2022/03/04 09:48:26;;;;;;;49.27;30.43;;;2.00;99.90;;;;;;5030728;28;20357;-53
2022/03/04 09:50:52;;;;;;;52.10;28.20;;;2.10;99.90;;;;;;5030955;28;20357;-52
2022/03/04 09:53:18;;;;;;;48.70;24.87;;;2.30;99.90;;;;;;5031344;28;20037;-50
2022/03/04 09:55:45;;;;;;;47.67;26.75;;;2.40;99.90;;;;;;5030990;28;20418;-53
2022/03/04 09:58:17;;;;;;;;;;;2.30;99.90;;;;;;5031936;28;20041;-53
2022/03/04 10:00:44;;;;;;;46.03;26.70;;;2.40;99.90;;;;;;5030760;28;19917;-54
2022/03/04 10:03:44;;;;;;;45.72;25.70;;;2.50;99.90;;;;;;5030518;28;20064;-49
2022/03/04 10:06:10;;;;;;;52.92;28.95;;;2.80;99.90;;;;;;5012912;28;20041;-49
2022/03/04 10:08:40;;;;;;;44.58;26.60;;;2.80;99.90;;;;;;5013348;28;20044;-53
2022/03/04 10:11:07;;;;;;;47.15;26.88;;;2.60;99.90;;;;;;5010037;28;20042;-55
2022/03/04 10:13:44;;;;;;;47.25;26.63;;;2.50;99.90;;;;;;5010594;28;20129;-53
2022/03/04 10:16:14;;;;;;;;;;;2.50;99.90;;;;;;5023674;28;20536;-52
2022/03/04 10:18:40;;;;;;;43.92;25.85;;;2.50;99.90;;;;;;5031152;28;20348;-54
2022/03/04 10:21:05;;;;;;;44.22;25.30;;;2.60;99.90;;;;;;5030084;28;20035;-54
2022/03/04 10:23:31;;;;;;;37.30;24.07;;;2.80;99.90;;;;;;5029284;28;20049;-54
2022/03/04 10:25:58;;;;;;;45.33;26.58;;;2.90;99.90;;;;;;5011886;28;20049;-52
2022/03/04 10:28:26;;;;;;;41.13;23.13;;;3.10;99.90;;;;;;5030650;28;20046;-50
2022/03/04 10:30:54;;;;;;;39.47;23.58;;;3.30;99.90;;;;;;5013114;28;20048;-54
2022/03/04 10:33:30;;;;;;;38.83;23.48;;;3.60;99.90;;;;;;5030169;28;20041;-55
2022/03/04 10:36:09;;;;;;;38.43;22.33;;;3.80;99.90;;;;;;5012002;28;20057;-52
2022/03/04 10:38:35;;;;;;;51.28;22.10;;;4.10;99.90;;;;;;5029809;28;20528;-52
2022/03/04 10:41:19;;;;;;;32.40;19.40;;;4.40;99.90;;;;;;5012503;28;20056;-53
2022/03/04 10:43:44;;;;;;;35.80;21.55;;;4.50;99.90;;;;;;5030025;28;20049;-53
2022/03/04 10:46:10;;;;;;;40.80;22.70;;;4.80;99.90;;;;;;5030218;28;20033;-54
2022/03/04 10:48:36;;;;;;;37.37;21.23;;;5.00;99.90;;;;;;5025829;28;20510;-54
2022/03/04 10:51:04;;;;;;;31.90;19.10;;;5.10;99.90;;;;;;5029965;28;20494;-53
2022/03/04 10:53:32;;;;;;;31.13;18.77;;;5.30;99.90;;;;;;5024928;28;20037;-54
2022/03/04 10:56:02;;;;;;;31.33;19.80;;;5.40;99.90;;;;;;5029515;28;20037;-51
2022/03/04 10:58:39;;;;;;;33.60;21.90;;;5.40;99.90;;;;;;5029787;28;20045;-53
2022/03/04 11:01:09;;;;;;;33.67;21.65;;;5.20;99.90;;;;;;5030620;28;20037;-55
2022/03/04 11:03:37;;;;;;;32.53;20.20;;;5.20;99.90;;;;;;5028172;28;20422;-53
2022/03/04 11:06:06;;;;;;;30.00;18.85;;;5.10;99.90;;;;;;5029521;28;20033;-49
2022/03/04 11:08:32;;;;;;;31.73;19.75;;;5.00;99.90;;;;;;5009973;28;20770;-54
2022/03/04 11:10:58;;;;;;;35.72;19.83;;;5.10;99.90;;;;;;5029182;28;20042;-52
2022/03/04 11:13:24;;;;;;;31.85;18.67;;;5.10;99.90;;;;;;5028174;28;20496;-56
2022/03/04 11:15:52;;;;;;;28.77;19.38;;;5.20;99.90;;;;;;5027250;28;20033;-52
2022/03/04 11:18:20;;;;;;;28.48;18.90;;;5.20;99.90;;;;;;5029031;28;20034;-54
2022/03/04 11:20:49;;;;;;;31.77;19.05;;;5.30;99.90;;;;;;5029110;28;20041;-51
2022/03/04 11:23:22;;;;;;;32.55;18.95;;;5.30;99.90;;;;;;5027610;28;20045;-49
2022/03/04 11:26:02;;;;;;;27.60;17.50;;;5.30;99.90;;;;;;5029261;28;20282;-51
2022/03/04 11:28:40;;;;;;;25.60;18.33;;;5.50;99.90;;;;;;5025480;28;20045;-53
2022/03/04 11:31:08;;;;;;;30.02;16.38;;;5.50;99.90;;;;;;5026279;28;20546;-50
2022/03/04 11:33:41;;;;;;;26.95;18.33;;;5.60;99.90;;;;;;5026620;28;20045;-50
2022/03/04 11:36:11;;;;;;;29.50;17.75;;;5.60;99.90;;;;;;5011307;28;20045;-50
2022/03/04 11:38:49;;;;;;;26.10;16.13;;;5.70;99.90;;;;;;5027604;28;20048;-50
2022/03/04 11:41:25;;;;;;;23.60;16.63;;;5.80;99.90;;;;;;5027297;28;20305;-53
2022/03/04 11:43:55;;;;;;;27.38;16.85;;;5.90;99.90;;;;;;5027594;28;20049;-55
2022/03/04 11:46:29;;;;;;;27.73;15.63;;;5.90;99.90;;;;;;5029298;28;20045;-52
2022/03/04 11:49:33;;;;;;;27.92;16.95;;;6.00;99.90;;;;;;5029627;28;20103;-52
2022/03/04 11:52:24;;;;;;;25.20;15.70;;;6.10;99.90;;;;;;5031925;28;20044;-53
2022/03/04 11:54:50;;;;;;;26.55;16.88;;;6.30;99.90;;;;;;5028486;28;20037;-53
2022/03/04 11:57:37;;;;;;;22.58;14.82;;;6.30;99.90;;;;;;5031726;28;20056;-55
2022/03/04 12:00:14;;;;;;;22.77;15.57;;;6.40;99.90;;;;;;5026139;28;20084;-55
2022/03/04 12:02:43;;;;;;;23.88;15.63;;;6.40;99.90;;;;;;5014055;28;20041;-51
2022/03/04 12:05:14;;;;;;;27.77;16.05;;;6.40;99.90;;;;;;5031222;28;20425;-56
2022/03/04 12:07:48;;;;;;;24.58;16.65;;;6.50;99.90;;;;;;5032102;28;20052;-50
2022/03/04 12:10:20;;;;;;;28.70;16.73;;;6.60;99.90;;;;;;5023513;28;20787;-54
2022/03/04 12:13:04;;;;;;;25.88;16.45;;;6.70;99.90;;;;;;5033262;28;20116;-53
2022/03/04 12:15:40;;;;;;;27.73;16.65;;;6.80;99.90;;;;;;5031986;28;20041;-52
2022/03/04 12:18:26;;;;;;;23.13;15.30;;;6.80;99.90;;;;;;5014256;28;20407;-51
2022/03/04 12:21:10;;;;;;;27.67;16.35;;;6.80;99.90;;;;;;5031135;28;20136;-55
2022/03/04 12:23:42;;;;;;;24.30;16.33;;;6.90;99.90;;;;;;5033154;28;20110;-52
2022/03/04 12:26:10;;;;;;;24.10;16.17;;;7.00;99.90;;;;;;5030102;28;20490;-50
2022/03/04 12:28:45;;;;;;;26.77;17.33;;;7.00;99.70;;;;;;5031746;28;20046;-54
2022/03/04 12:31:14;;;;;;;26.35;17.05;;;7.00;98.80;;;;;;5031018;28;20101;-51
2022/03/04 12:33:43;;;;;;;25.50;17.38;;;7.10;99.40;;;;;;5031903;28;20041;-50
2022/03/04 12:36:11;;;;;;;29.42;17.58;;;7.20;99.60;;;;;;5030684;28;20109;-51